Time;durP1;ratioP1;P1;durP2;ratioP2;P2;SDS_P1;SDS_P2;PMS_P1;PMS_P2;Temp;Humidity;BMP_temperature;BMP_pressure;BME280_temperature;BME280_humidity;BME280_pressure;Samples;Min_cycle;Max_cycle;Signal;HPM_P1;HPM_P2
2021/12/21 00:00:14;;;;;;;28.40;10.10;;;0.50;99.90;;;;;;4971586;28;38894;-73
2021/12/21 00:02:47;;;;;;;30.90;12.07;;;0.50;99.90;;;;;;4959937;28;37566;-74
2021/12/21 00:05:19;;;;;;;31.03;10.87;;;0.50;99.90;;;;;;4966758;28;40276;-73
2021/12/21 00:07:47;;;;;;;25.37;11.70;;;0.50;99.90;;;;;;4963314;28;38966;-73
2021/12/21 00:10:14;;;;;;;29.07;11.27;;;0.50;99.90;;;;;;4959957;28;39256;-73
2021/12/21 00:12:50;;;;;;;27.93;11.57;;;0.50;99.90;;;;;;4965513;28;36123;-73
2021/12/21 00:15:35;;;;;;;28.17;11.70;;;0.40;99.90;;;;;;4954712;28;40619;-72
2021/12/21 00:18:13;;;;;;;27.13;12.13;;;0.50;99.90;;;;;;4961640;28;38755;-73
2021/12/21 00:23:33;;;;;;;25.57;13.03;;;0.40;99.90;;;;;;4961854;28;37571;-73
2021/12/21 00:26:11;;;;;;;30.33;13.37;;;0.40;99.90;;;;;;4970787;28;37827;-73
2021/12/21 00:28:47;;;;;;;48.87;14.73;;;0.40;99.90;;;;;;4981268;28;45116;-72
2021/12/21 00:31:14;;;;;;;36.87;12.93;;;0.40;99.90;;;;;;4962810;28;37405;-72
2021/12/21 00:33:41;;;;;;;35.83;13.17;;;0.30;99.90;;;;;;4967684;28;37358;-73
2021/12/21 00:36:08;;;;;;;31.20;12.93;;;0.30;99.90;;;;;;4973333;28;37692;-73
2021/12/21 00:38:35;;;;;;;31.50;12.80;;;0.30;99.90;;;;;;4962024;28;38040;-72
2021/12/21 00:41:01;;;;;;;33.03;13.00;;;0.30;99.90;;;;;;4970718;28;38433;-73
2021/12/21 00:43:27;;;;;;;35.33;12.23;;;0.30;99.90;;;;;;4959952;28;48342;-73
2021/12/21 00:45:53;;;;;;;28.73;12.47;;;0.20;99.90;;;;;;4963098;28;37805;-72
2021/12/21 00:48:21;;;;;;;32.93;14.53;;;0.20;99.90;;;;;;4959373;28;38995;-72
2021/12/21 00:50:47;;;;;;;29.07;12.17;;;0.30;99.90;;;;;;4964694;28;37425;-74
2021/12/21 00:53:13;;;;;;;29.93;11.47;;;0.20;99.90;;;;;;4966293;28;36270;-73
2021/12/21 00:55:39;;;;;;;29.17;12.47;;;0.10;99.90;;;;;;4962530;28;39824;-73
2021/12/21 00:58:06;;;;;;;33.10;12.57;;;0.10;99.90;;;;;;4968653;28;38665;-73
2021/12/21 01:00:32;;;;;;;25.97;10.90;;;0.10;99.90;;;;;;4955815;28;37662;-72
2021/12/21 01:03:04;;;;;;;28.50;11.97;;;0.10;99.90;;;;;;4963998;28;36593;-71
2021/12/21 01:05:56;;;;;;;28.42;11.38;;;0.00;99.90;;;;;;4959847;28;49333;-72
2021/12/21 01:08:24;;;;;;;31.13;12.10;;;0.00;99.90;;;;;;4960196;28;38653;-73
2021/12/21 01:11:10;;;;;;;34.53;11.53;;;0.00;99.90;;;;;;4962956;28;37658;-72
2021/12/21 01:16:21;;;;;;;31.60;12.38;;;0.00;99.90;;;;;;4951554;28;40111;-73
2021/12/21 01:19:07;;;;;;;27.00;12.07;;;-0.10;99.90;;;;;;4960040;28;38367;-73
2021/12/21 01:21:41;;;;;;;30.83;12.57;;;0.00;99.90;;;;;;4956744;28;48744;-73
2021/12/21 01:29:47;;;;;;;26.37;11.33;;;-0.10;99.90;;;;;;4964055;28;39913;-73
2021/12/21 01:32:34;;;;;;;22.53;11.43;;;-0.20;99.90;;;;;;4959980;28;38702;-72
2021/12/21 01:35:10;;;;;;;27.60;11.97;;;-0.20;99.90;;;;;;4951915;28;38106;-72
2021/12/21 01:50:59;;;;;;;31.13;11.40;;;-0.20;99.90;;;;;;4958439;28;39469;-73
2021/12/21 01:53:25;;;;;;;32.17;11.87;;;-0.40;99.90;;;;;;4948337;28;38575;-73
2021/12/21 01:55:51;;;;;;;30.63;11.53;;;-0.40;99.90;;;;;;4952162;28;37187;-73
2021/12/21 01:58:17;;;;;;;27.73;11.67;;;-0.30;99.90;;;;;;4953633;28;40632;-73
2021/12/21 02:00:44;;;;;;;29.03;12.07;;;-0.30;99.90;;;;;;4952402;28;38694;-72
2021/12/21 02:03:10;;;;;;;31.83;12.27;;;-0.30;99.90;;;;;;4962632;28;37823;-73
2021/12/21 02:05:37;;;;;;;31.83;13.23;;;-0.40;99.90;;;;;;4967356;28;37837;-73
2021/12/21 02:08:05;;;;;;;25.40;11.27;;;-0.40;99.90;;;;;;4977972;28;37848;-73
2021/12/21 02:10:31;;;;;;;28.70;11.73;;;-0.40;99.90;;;;;;4956253;28;39074;-72
2021/12/21 02:12:57;;;;;;;29.90;12.53;;;-0.50;99.90;;;;;;4958186;28;37910;-73
2021/12/21 02:15:25;;;;;;;29.83;13.00;;;-0.60;99.90;;;;;;4978948;28;35422;-72
2021/12/21 02:18:27;;;;;;;26.63;11.97;;;-0.50;99.90;;;;;;4964027;28;38759;-72
2021/12/21 02:20:54;;;;;;;26.70;11.60;;;-0.50;99.90;;;;;;4956650;28;48340;-72
2021/12/21 02:23:29;;;;;;;27.63;12.57;;;-0.50;99.90;;;;;;4985652;28;37683;-72
2021/12/21 02:26:11;;;;;;;28.00;12.00;;;-0.50;99.90;;;;;;4961524;28;36446;-71
2021/12/21 02:28:58;;;;;;;31.13;11.90;;;-0.60;99.90;;;;;;4962345;28;47605;-72
2021/12/21 02:31:26;;;;;;;28.83;12.17;;;-0.60;99.90;;;;;;4959675;28;40851;-72
2021/12/21 02:33:53;;;;;;;31.03;12.67;;;-0.60;99.90;;;;;;4953468;28;39987;-72
2021/12/21 02:36:20;;;;;;;27.93;11.50;;;-0.60;99.90;;;;;;4956778;28;38400;-72
2021/12/21 02:38:46;;;;;;;26.93;11.67;;;-0.70;99.90;;;;;;4953711;28;38455;-72
2021/12/21 02:41:12;;;;;;;27.33;12.57;;;-0.60;99.90;;;;;;4949645;28;38807;-72
2021/12/21 02:43:38;;;;;;;28.30;11.47;;;-0.60;99.90;;;;;;4950104;28;38250;-72
2021/12/21 02:46:05;;;;;;;24.57;10.83;;;-0.60;99.90;;;;;;4951968;28;37565;-72
2021/12/21 02:48:32;;;;;;;26.80;11.13;;;-0.70;99.90;;;;;;4961492;28;38015;-72
2021/12/21 02:50:59;;;;;;;29.03;10.90;;;-0.80;99.90;;;;;;4963742;28;39411;-72
2021/12/21 02:53:25;;;;;;;29.07;11.73;;;-0.80;99.90;;;;;;4960965;28;37630;-73
2021/12/21 02:55:51;;;;;;;22.27;10.97;;;-0.80;99.90;;;;;;4966597;28;36824;-72
2021/12/21 02:58:17;;;;;;;27.40;12.13;;;-0.80;99.90;;;;;;4951656;28;38769;-72
2021/12/21 03:00:44;;;;;;;28.07;11.37;;;-0.90;99.90;;;;;;4976635;28;38860;-72
2021/12/21 03:03:14;;;;;;;28.50;11.00;;;-0.90;99.90;;;;;;4966479;28;39255;-73
2021/12/21 03:05:51;;;;;;;26.10;10.57;;;-0.80;99.90;;;;;;4974203;28;36162;-72
2021/12/21 03:08:44;;;;;;;27.73;11.23;;;-0.80;99.90;;;;;;4961035;28;39017;-73
2021/12/21 03:16:18;;;;;;;30.10;10.77;;;-0.80;99.90;;;;;;4963034;28;36569;-73
2021/12/21 03:18:44;;;;;;;25.37;11.13;;;-0.80;99.90;;;;;;4949170;28;40828;-73
2021/12/21 03:21:11;;;;;;;26.93;10.67;;;-0.80;99.90;;;;;;4963068;28;40091;-73
2021/12/21 03:23:38;;;;;;;37.60;12.37;;;-0.90;99.90;;;;;;4949864;28;39204;-73
2021/12/21 03:26:04;;;;;;;27.23;10.43;;;-1.00;99.90;;;;;;4964286;28;39246;-72
2021/12/21 03:28:30;;;;;;;22.20;10.03;;;-1.10;99.90;;;;;;4972171;28;39615;-72
2021/12/21 03:30:56;;;;;;;29.40;12.00;;;-1.10;99.90;;;;;;4962020;28;40516;-70
2021/12/21 03:33:22;;;;;;;27.43;10.93;;;-1.10;99.90;;;;;;4959875;28;38548;-72
2021/12/21 03:35:49;;;;;;;29.03;10.30;;;-1.10;99.90;;;;;;4970501;28;38758;-72
2021/12/21 03:38:16;;;;;;;23.70;10.67;;;-1.10;99.90;;;;;;4964543;28;39395;-72
2021/12/21 03:40:43;;;;;;;23.47;10.50;;;-1.00;99.90;;;;;;4959507;28;40315;-74
2021/12/21 03:43:10;;;;;;;26.63;11.00;;;-1.00;99.90;;;;;;4957275;28;37167;-73
2021/12/21 03:45:47;;;;;;;25.50;10.00;;;-0.90;99.90;;;;;;4959630;28;38032;-73
2021/12/21 03:48:15;;;;;;;21.30;9.87;;;-0.90;99.90;;;;;;4959545;28;39404;-72
2021/12/21 03:50:41;;;;;;;31.27;11.47;;;-1.00;99.90;;;;;;4964570;28;39440;-73
2021/12/21 03:53:07;;;;;;;24.83;9.90;;;-1.00;99.90;;;;;;4950479;28;39285;-72
2021/12/21 03:55:34;;;;;;;26.67;10.83;;;-1.10;99.90;;;;;;4947328;28;37317;-72
2021/12/21 03:58:00;;;;;;;23.53;9.53;;;-1.20;99.90;;;;;;4945007;28;38735;-72
2021/12/21 04:00:27;;;;;;;30.57;11.37;;;-1.20;99.90;;;;;;4944755;28;39527;-72
2021/12/21 04:02:54;;;;;;;24.23;10.73;;;-1.20;99.90;;;;;;4953644;28;39483;-73
2021/12/21 04:05:20;;;;;;;22.30;10.07;;;-1.20;99.90;;;;;;4955026;28;35300;-72
2021/12/21 04:07:46;;;;;;;30.00;11.00;;;-1.10;99.90;;;;;;4964968;28;39093;-73
2021/12/21 04:10:12;;;;;;;27.47;11.10;;;-1.10;99.90;;;;;;4948555;28;41091;-73
2021/12/21 04:12:38;;;;;;;29.13;10.87;;;-1.10;99.90;;;;;;4957628;28;38851;-73
2021/12/21 04:15:07;;;;;;;26.47;10.47;;;-1.20;99.90;;;;;;4961169;28;37309;-73
2021/12/21 04:17:33;;;;;;;25.13;11.80;;;-1.20;99.90;;;;;;4965661;28;39909;-73
2021/12/21 04:19:59;;;;;;;25.90;10.07;;;-1.30;99.90;;;;;;4967967;28;40694;-72
2021/12/21 04:22:26;;;;;;;19.67;9.57;;;-1.30;99.90;;;;;;4963981;28;40092;-72
2021/12/21 04:24:52;;;;;;;23.50;10.63;;;-1.30;99.90;;;;;;4961368;28;40151;-72
2021/12/21 04:27:18;;;;;;;23.43;11.40;;;-1.20;99.90;;;;;;4955128;28;40524;-72
2021/12/21 04:29:45;;;;;;;24.57;10.97;;;-1.20;99.90;;;;;;4977125;28;40687;-72
2021/12/21 04:32:11;;;;;;;30.67;12.07;;;-1.30;99.90;;;;;;4957407;28;37278;-72
2021/12/21 04:34:38;;;;;;;19.33;10.80;;;-1.30;99.90;;;;;;4949890;28;37929;-73
2021/12/21 04:37:05;;;;;;;28.20;11.40;;;-1.30;99.90;;;;;;4949245;28;38857;-72
2021/12/21 04:39:38;;;;;;;34.97;12.97;;;-1.40;99.90;;;;;;4946464;28;39417;-73
2021/12/21 04:42:05;;;;;;;25.03;10.70;;;-1.50;99.90;;;;;;4965124;28;37193;-73
2021/12/21 04:44:32;;;;;;;31.93;11.50;;;-1.50;99.90;;;;;;4951167;28;38199;-72
2021/12/21 04:46:58;;;;;;;23.93;11.03;;;-1.40;99.90;;;;;;4969390;28;38899;-72
2021/12/21 04:49:25;;;;;;;26.63;12.50;;;-1.40;99.90;;;;;;4954075;28;38887;-72
2021/12/21 04:51:51;;;;;;;24.80;11.80;;;-1.50;99.90;;;;;;4950538;28;38563;-72
2021/12/21 04:54:17;;;;;;;29.20;11.23;;;-1.50;99.90;;;;;;4947221;28;38227;-72
2021/12/21 04:56:43;;;;;;;31.00;12.93;;;-1.40;99.90;;;;;;4961975;28;39061;-72
2021/12/21 04:59:09;;;;;;;26.23;11.27;;;-1.40;99.90;;;;;;4953769;28;39567;-72
2021/12/21 05:01:35;;;;;;;25.70;11.23;;;-1.30;99.90;;;;;;4957054;28;38647;-72
2021/12/21 05:04:01;;;;;;;26.70;11.27;;;-1.30;99.90;;;;;;4965035;28;36449;-73
2021/12/21 05:06:27;;;;;;;27.43;11.00;;;-1.30;99.90;;;;;;4955010;28;38587;-73
2021/12/21 05:09:05;;;;;;;25.83;11.40;;;-1.40;99.90;;;;;;4957404;28;37916;-72
2021/12/21 05:11:35;;;;;;;26.07;12.00;;;-1.30;99.90;;;;;;4958568;28;47248;-72
2021/12/21 05:14:01;;;;;;;28.00;12.17;;;-1.30;99.90;;;;;;4949041;28;36367;-73
2021/12/21 05:16:27;;;;;;;29.10;12.07;;;-1.30;99.90;;;;;;4955146;28;48822;-73
2021/12/21 05:18:53;;;;;;;29.03;13.00;;;-1.30;99.90;;;;;;4974707;28;38261;-72
2021/12/21 05:21:19;;;;;;;22.37;11.67;;;-1.40;99.90;;;;;;4952520;28;39279;-72
2021/12/21 05:23:45;;;;;;;26.97;11.23;;;-1.40;99.90;;;;;;4956360;28;36247;-73
2021/12/21 05:26:11;;;;;;;30.00;11.37;;;-1.50;99.90;;;;;;4963560;28;37912;-73
2021/12/21 05:28:37;;;;;;;26.00;11.90;;;-1.50;99.90;;;;;;4978912;28;39492;-73
2021/12/21 05:31:04;;;;;;;31.50;12.77;;;-1.50;99.90;;;;;;4975936;28;38899;-73
2021/12/21 05:33:30;;;;;;;35.13;11.60;;;-1.50;99.90;;;;;;4963686;28;38827;-73
2021/12/21 05:35:56;;;;;;;31.60;13.93;;;-1.50;99.90;;;;;;4955004;28;39601;-73
2021/12/21 05:38:30;;;;;;;28.40;12.30;;;-1.50;99.90;;;;;;4963086;28;40939;-73
2021/12/21 05:41:00;;;;;;;29.33;12.80;;;-1.50;99.90;;;;;;4971292;28;38235;-72
2021/12/21 05:43:26;;;;;;;30.00;12.57;;;-1.50;99.90;;;;;;4958807;28;37533;-73
2021/12/21 05:45:52;;;;;;;28.07;13.33;;;-1.50;99.90;;;;;;4976820;28;40496;-73
2021/12/21 05:48:18;;;;;;;27.30;12.50;;;-1.50;99.90;;;;;;4963115;28;38376;-72
2021/12/21 05:50:44;;;;;;;34.37;13.63;;;-1.40;99.90;;;;;;4956173;28;37100;-71
2021/12/21 05:53:10;;;;;;;25.10;11.83;;;-1.50;99.90;;;;;;4979540;28;37982;-72
2021/12/21 05:55:36;;;;;;;29.87;12.73;;;-1.50;99.90;;;;;;4969703;28;40129;-73
2021/12/21 05:58:03;;;;;;;29.57;14.10;;;-1.60;99.90;;;;;;4952108;28;38853;-72
2021/12/21 06:00:31;;;;;;;38.17;13.83;;;-1.50;99.90;;;;;;4956856;28;39486;-72
2021/12/21 06:02:58;;;;;;;30.63;13.70;;;-1.50;99.90;;;;;;4958981;28;37837;-73
2021/12/21 06:05:24;;;;;;;28.47;13.60;;;-1.50;99.90;;;;;;4954723;28;39746;-72
2021/12/21 06:07:52;;;;;;;30.33;13.77;;;-1.50;99.90;;;;;;4954802;28;38678;-72
2021/12/21 06:10:34;;;;;;;23.40;12.13;;;-1.60;99.90;;;;;;4967384;28;39935;-72
2021/12/21 06:26:09;;;;;;;33.17;13.80;;;-1.70;99.90;;;;;;4949493;28;39039;-73
2021/12/21 06:28:36;;;;;;;32.07;13.73;;;-1.80;99.90;;;;;;4956877;28;37810;-74
2021/12/21 06:31:03;;;;;;;35.60;14.17;;;-1.80;99.90;;;;;;4961925;28;38928;-73
2021/12/21 06:33:30;;;;;;;34.17;14.27;;;-1.90;99.90;;;;;;4969724;28;36370;-73
2021/12/21 06:35:56;;;;;;;34.73;14.00;;;-2.00;99.90;;;;;;4959446;28;39902;-73
2021/12/21 06:38:22;;;;;;;26.53;13.33;;;-2.00;99.90;;;;;;4953664;28;38554;-73
2021/12/21 06:40:49;;;;;;;23.33;12.10;;;-2.00;99.90;;;;;;4948045;28;38682;-73
2021/12/21 06:43:16;;;;;;;37.90;14.27;;;-2.00;99.90;;;;;;4959461;28;36301;-73
2021/12/21 06:53:43;;;;;;;24.53;11.77;;;-2.00;99.90;;;;;;4957099;28;49008;-72
2021/12/21 06:56:10;;;;;;;34.00;13.80;;;-1.90;99.90;;;;;;4954191;28;39285;-73
2021/12/21 06:58:37;;;;;;;26.03;12.73;;;-1.90;99.90;;;;;;4951630;28;38723;-73
2021/12/21 07:01:05;;;;;;;26.77;12.30;;;-1.90;99.90;;;;;;4956851;28;38719;-73
2021/12/21 07:03:31;;;;;;;32.37;13.63;;;-1.90;99.90;;;;;;4956727;28;37361;-73
2021/12/21 07:06:02;;;;;;;28.73;13.70;;;-2.00;99.90;;;;;;4958185;28;38703;-73
2021/12/21 07:08:31;;;;;;;33.83;14.33;;;-2.00;99.90;;;;;;4953111;28;47163;-73
2021/12/21 07:11:13;;;;;;;37.63;13.73;;;-2.10;99.90;;;;;;4958335;28;37387;-72
2021/12/21 07:19:10;;;;;;;37.87;16.23;;;-1.90;99.90;;;;;;4954884;28;39984;-73
2021/12/21 07:21:37;;;;;;;26.90;13.57;;;-2.10;99.90;;;;;;4947337;28;38558;-72
2021/12/21 07:24:04;;;;;;;29.03;13.20;;;-2.10;99.90;;;;;;4956311;28;38186;-73
2021/12/21 07:26:31;;;;;;;36.73;15.00;;;-2.10;99.90;;;;;;4955736;28;37633;-73
2021/12/21 07:28:57;;;;;;;21.57;11.97;;;-2.20;99.90;;;;;;4974471;28;37938;-74
2021/12/21 07:31:24;;;;;;;30.13;13.80;;;-2.20;99.90;;;;;;4954438;28;38942;-73
2021/12/21 07:33:50;;;;;;;27.90;13.73;;;-2.10;99.90;;;;;;4961810;28;37220;-73
2021/12/21 07:36:16;;;;;;;37.03;15.83;;;-2.00;99.90;;;;;;4953989;28;40232;-73
2021/12/21 07:38:42;;;;;;;34.50;15.37;;;-1.90;99.90;;;;;;4950587;28;38829;-73
2021/12/21 07:41:09;;;;;;;29.80;14.50;;;-1.80;99.90;;;;;;4959122;28;37472;-73
2021/12/21 07:43:35;;;;;;;27.90;15.33;;;-1.90;99.90;;;;;;4962606;28;36209;-73
2021/12/21 07:46:01;;;;;;;30.53;14.33;;;-1.70;99.90;;;;;;4961473;28;38887;-73
2021/12/21 07:48:27;;;;;;;23.23;12.53;;;-1.60;99.90;;;;;;4955402;28;46643;-74
2021/12/21 07:50:55;;;;;;;36.53;17.37;;;-1.50;99.90;;;;;;4959757;28;37815;-71
2021/12/21 07:53:22;;;;;;;36.60;17.60;;;-1.40;99.90;;;;;;4958791;28;39242;-73
2021/12/21 07:55:48;;;;;;;29.60;13.87;;;-1.40;99.90;;;;;;4958824;28;38728;-72
2021/12/21 07:58:14;;;;;;;36.17;15.73;;;-1.50;99.90;;;;;;4962312;28;39577;-73
2021/12/21 08:00:41;;;;;;;33.73;13.53;;;-1.50;99.90;;;;;;4974605;28;35567;-72
2021/12/21 08:03:08;;;;;;;41.80;16.80;;;-1.60;99.90;;;;;;4963084;28;37388;-73
2021/12/21 08:05:35;;;;;;;23.70;12.47;;;-1.60;99.90;;;;;;4968982;28;40383;-72
2021/12/21 08:08:17;;;;;;;29.57;12.40;;;-1.70;99.90;;;;;;4969024;28;39454;-72
2021/12/21 08:10:52;;;;;;;21.95;13.05;;;-1.70;99.90;;;;;;4959346;28;47566;-71
2021/12/21 08:13:18;;;;;;;29.27;14.07;;;-1.70;99.90;;;;;;4962520;28;37916;-72
2021/12/21 08:15:45;;;;;;;35.43;15.93;;;-1.70;99.90;;;;;;4960024;28;37563;-72
2021/12/21 08:18:11;;;;;;;28.43;14.47;;;-1.70;99.90;;;;;;4955324;28;39507;-72
2021/12/21 08:20:38;;;;;;;41.67;15.90;;;-1.70;99.90;;;;;;4953605;28;38655;-72
2021/12/21 08:23:08;;;;;;;40.13;14.33;;;-1.70;99.90;;;;;;4962223;28;37468;-71
2021/12/21 08:25:35;;;;;;;32.13;14.70;;;-1.70;99.90;;;;;;4968222;28;37821;-71
2021/12/21 08:28:02;;;;;;;32.83;15.13;;;-1.70;99.90;;;;;;4955709;28;37859;-70
2021/12/21 08:30:29;;;;;;;28.40;13.97;;;-1.70;99.90;;;;;;4956732;28;47299;-71
2021/12/21 08:32:57;;;;;;;30.20;14.77;;;-1.60;99.90;;;;;;4959236;28;36513;-71
2021/12/21 08:35:24;;;;;;;33.60;15.57;;;-1.60;99.90;;;;;;4948254;28;39596;-70
2021/12/21 08:37:59;;;;;;;32.00;16.33;;;-1.60;99.90;;;;;;4966078;28;37779;-70
2021/12/21 08:40:25;;;;;;;27.00;14.57;;;-1.60;99.90;;;;;;4956034;28;39438;-71
2021/12/21 08:42:52;;;;;;;37.33;15.97;;;-1.60;99.90;;;;;;4976999;28;36213;-70
2021/12/21 08:45:19;;;;;;;25.27;13.93;;;-1.60;99.90;;;;;;4949918;28;37658;-74
2021/12/21 08:47:45;;;;;;;33.63;15.10;;;-1.50;99.90;;;;;;4955689;28;38543;-71
2021/12/21 08:50:13;;;;;;;29.10;13.83;;;-1.30;99.90;;;;;;4957053;28;37470;-72
2021/12/21 08:52:39;;;;;;;32.67;15.77;;;-1.30;99.90;;;;;;4963061;28;38490;-72
2021/12/21 08:55:08;;;;;;;32.57;15.97;;;-1.30;99.90;;;;;;4947460;28;39139;-72
2021/12/21 08:57:36;;;;;;;38.70;16.57;;;-1.40;99.90;;;;;;4963019;28;38001;-71
2021/12/21 09:00:06;;;;;;;45.10;19.87;;;-1.30;99.90;;;;;;4952527;28;38741;-72
2021/12/21 09:02:35;;;;;;;40.77;17.83;;;-1.20;99.90;;;;;;4936110;28;48801;-72
2021/12/21 09:05:11;;;;;;;50.33;22.40;;;-1.20;99.90;;;;;;4951280;28;38546;-71
2021/12/21 09:07:39;;;;;;;44.87;20.93;;;-1.10;99.90;;;;;;4955723;28;48561;-71
2021/12/21 09:10:07;;;;;;;43.10;20.53;;;-1.00;99.90;;;;;;4961515;28;38652;-72
2021/12/21 09:12:34;;;;;;;36.37;18.10;;;-1.00;99.90;;;;;;4951060;28;36531;-72
2021/12/21 09:15:01;;;;;;;34.73;19.10;;;-0.90;99.90;;;;;;4957809;28;38800;-71
2021/12/21 09:17:28;;;;;;;39.07;20.07;;;-0.90;99.90;;;;;;4957295;28;47491;-71
2021/12/21 09:19:57;;;;;;;36.57;18.17;;;-0.70;99.90;;;;;;4970424;28;38507;-71
2021/12/21 09:22:24;;;;;;;45.90;20.53;;;-0.70;99.90;;;;;;4960729;28;37317;-71
2021/12/21 09:24:51;;;;;;;44.77;20.10;;;-0.60;99.90;;;;;;4968747;28;39134;-71
2021/12/21 09:27:18;;;;;;;44.97;22.50;;;-0.50;99.90;;;;;;4952693;28;39597;-71
2021/12/21 09:29:45;;;;;;;49.73;23.23;;;-0.40;99.90;;;;;;4961855;28;38620;-71
2021/12/21 09:32:13;;;;;;;39.27;21.97;;;-0.20;99.90;;;;;;4965946;28;37533;-72
2021/12/21 09:34:44;;;;;;;43.57;22.83;;;-0.20;99.90;;;;;;4951458;28;39193;-71
2021/12/21 09:37:16;;;;;;;42.17;21.70;;;0.00;99.90;;;;;;4957821;28;39029;-71
2021/12/21 09:39:44;;;;;;;39.85;22.27;;;0.10;99.90;;;;;;4954766;28;39239;-71
2021/12/21 09:42:14;;;;;;;41.57;21.20;;;0.10;99.90;;;;;;4954465;28;37707;-71
2021/12/21 09:44:41;;;;;;;50.83;25.60;;;0.20;99.90;;;;;;4960364;28;38826;-71
2021/12/21 09:47:09;;;;;;;44.77;21.80;;;0.20;99.90;;;;;;4951427;28;38803;-70
2021/12/21 09:49:36;;;;;;;45.23;22.10;;;0.30;99.90;;;;;;4953343;28;38580;-73
2021/12/21 09:52:04;;;;;;;38.77;20.83;;;0.30;99.90;;;;;;4953588;28;37551;-71
2021/12/21 09:54:32;;;;;;;45.03;21.87;;;0.30;99.90;;;;;;4971092;28;38728;-71
2021/12/21 09:56:58;;;;;;;49.03;23.17;;;0.40;99.90;;;;;;4949451;28;39449;-72
2021/12/21 09:59:25;;;;;;;42.17;20.57;;;0.50;99.90;;;;;;4950980;28;37227;-71
2021/12/21 10:01:51;;;;;;;40.30;22.27;;;0.50;99.90;;;;;;4963760;28;36852;-72
2021/12/21 10:04:18;;;;;;;34.77;20.53;;;0.60;99.90;;;;;;4955562;28;37861;-71
2021/12/21 10:06:47;;;;;;;44.00;21.70;;;0.70;99.90;;;;;;4972941;28;37775;-71
2021/12/21 10:09:14;;;;;;;43.27;21.40;;;0.70;99.90;;;;;;4956551;28;38634;-72
2021/12/21 10:11:43;;;;;;;47.97;21.87;;;0.70;99.90;;;;;;4963349;28;37953;-72
2021/12/21 10:14:09;;;;;;;41.73;21.77;;;0.80;99.90;;;;;;4947233;28;38662;-72
2021/12/21 10:16:36;;;;;;;31.70;20.87;;;0.80;99.90;;;;;;4952995;28;39707;-72
2021/12/21 10:19:05;;;;;;;42.77;21.83;;;0.90;99.90;;;;;;4974341;28;38655;-72
2021/12/21 10:21:31;;;;;;;44.50;22.20;;;0.90;99.90;;;;;;4951815;28;36498;-73
2021/12/21 10:23:57;;;;;;;45.17;21.80;;;0.90;99.90;;;;;;4967325;28;39019;-72
2021/12/21 10:26:29;;;;;;;30.73;19.13;;;1.00;99.90;;;;;;4964376;28;38818;-72
2021/12/21 10:29:05;;;;;;;40.47;19.98;;;1.00;99.90;;;;;;4980837;28;37534;-72
2021/12/21 10:31:35;;;;;;;41.33;20.60;;;1.00;99.90;;;;;;4982162;28;47507;-72
2021/12/21 10:34:05;;;;;;;35.40;18.47;;;1.10;99.90;;;;;;4956697;28;40588;-71
2021/12/21 10:36:39;;;;;;;40.23;21.10;;;1.20;99.90;;;;;;4955249;28;39539;-72
2021/12/21 10:39:05;;;;;;;35.43;20.97;;;1.20;99.90;;;;;;4946534;28;38327;-72
2021/12/21 10:41:43;;;;;;;33.53;18.70;;;1.20;99.90;;;;;;4957703;28;37234;-72
2021/12/21 10:44:16;;;;;;;32.50;18.23;;;1.30;99.90;;;;;;4952097;28;39450;-72
2021/12/21 10:46:52;;;;;;;31.17;17.83;;;1.40;99.90;;;;;;4970140;28;39333;-72
2021/12/21 10:49:22;;;;;;;36.40;19.77;;;1.40;99.90;;;;;;4976949;28;39910;-72
2021/12/21 10:52:05;;;;;;;35.37;18.30;;;1.50;99.90;;;;;;4951695;28;37357;-71
2021/12/21 10:54:32;;;;;;;31.70;17.17;;;1.60;99.90;;;;;;4954800;28;48546;-71
2021/12/21 10:57:01;;;;;;;31.07;18.97;;;1.70;99.90;;;;;;4951874;28;37779;-71
2021/12/21 10:59:31;;;;;;;40.13;20.00;;;1.80;99.90;;;;;;4953043;28;40727;-71
2021/12/21 11:02:15;;;;;;;36.33;19.50;;;1.90;99.90;;;;;;4960153;28;37872;-72
2021/12/21 11:04:44;;;;;;;38.93;19.10;;;1.90;99.90;;;;;;4961632;28;48498;-72
2021/12/21 11:07:26;;;;;;;33.77;19.37;;;2.00;99.90;;;;;;4962164;28;40494;-71
2021/12/21 11:10:12;;;;;;;32.07;17.70;;;2.10;99.90;;;;;;4982646;28;37059;-72
2021/12/21 11:12:46;;;;;;;35.77;20.10;;;2.30;99.90;;;;;;4955615;28;47149;-72
2021/12/21 11:15:34;;;;;;;25.83;15.83;;;2.30;99.90;;;;;;4947953;28;39820;-73
2021/12/21 11:18:05;;;;;;;29.00;17.50;;;2.30;99.90;;;;;;4949782;28;38275;-71
2021/12/21 11:20:33;;;;;;;31.88;17.30;;;2.30;99.90;;;;;;4953683;28;20083;-72
2021/12/21 11:23:01;;;;;;;30.07;18.20;;;2.30;99.90;;;;;;4952520;28;37359;-72
2021/12/21 11:25:28;;;;;;;37.00;17.70;;;2.30;99.90;;;;;;4947103;28;39916;-72
2021/12/21 11:27:55;;;;;;;25.67;17.13;;;2.30;99.90;;;;;;4961842;28;39176;-72
2021/12/21 11:30:24;;;;;;;31.53;16.03;;;2.30;99.90;;;;;;4981294;28;39024;-71
2021/12/21 11:32:52;;;;;;;28.67;15.70;;;2.30;99.90;;;;;;4964285;28;37714;-71
2021/12/21 11:37:51;;;;;;;26.13;14.53;;;2.40;99.90;;;;;;4961161;28;38213;-73
2021/12/21 11:40:20;;;;;;;29.87;15.27;;;2.60;99.90;;;;;;4962701;28;39365;-72
2021/12/21 11:43:09;;;;;;;29.67;16.30;;;2.60;99.90;;;;;;4949739;28;37282;-71
2021/12/21 11:45:47;;;;;;;29.87;16.20;;;2.70;99.90;;;;;;4970051;28;46587;-71
2021/12/21 11:48:48;;;;;;;23.17;15.07;;;2.70;99.90;;;;;;4950770;28;39508;-72
2021/12/21 11:51:15;;;;;;;35.60;15.53;;;2.80;99.90;;;;;;4954874;28;40225;-72
2021/12/21 11:53:41;;;;;;;21.50;12.03;;;3.00;99.90;;;;;;4964805;28;38636;-72
2021/12/21 11:56:09;;;;;;;29.70;13.03;;;3.00;99.90;;;;;;4951528;28;39169;-72
2021/12/21 11:58:40;;;;;;;21.67;12.77;;;3.10;99.90;;;;;;4961163;28;40504;-72
2021/12/21 12:01:19;;;;;;;27.70;11.33;;;3.20;99.90;;;;;;4963077;28;38401;-72
2021/12/21 12:04:03;;;;;;;15.63;10.13;;;3.30;99.90;;;;;;4958536;28;38333;-72
2021/12/21 12:06:47;;;;;;;20.93;10.20;;;3.30;99.90;;;;;;4955932;28;49028;-73
2021/12/21 12:09:21;;;;;;;19.50;11.23;;;3.40;99.90;;;;;;4955588;28;38733;-72
2021/12/21 12:11:48;;;;;;;24.60;12.20;;;3.40;99.90;;;;;;4967447;28;38880;-73
2021/12/21 12:14:18;;;;;;;19.97;10.27;;;3.50;99.90;;;;;;4959966;28;38232;-73
2021/12/21 12:16:48;;;;;;;21.50;10.80;;;3.50;99.90;;;;;;4946226;28;39243;-72
2021/12/21 12:19:17;;;;;;;18.40;11.47;;;3.50;99.90;;;;;;4955372;28;40303;-73
2021/12/21 12:22:04;;;;;;;19.47;11.87;;;3.50;99.90;;;;;;4960345;28;39385;-71
2021/12/21 12:24:40;;;;;;;20.63;11.13;;;3.60;99.90;;;;;;4958207;28;48723;-72
2021/12/21 12:27:09;;;;;;;19.37;10.57;;;3.60;99.90;;;;;;4976154;28;37449;-72
2021/12/21 12:29:43;;;;;;;21.67;10.70;;;3.60;99.90;;;;;;4967250;28;38848;-70
2021/12/21 12:32:11;;;;;;;18.07;9.63;;;3.60;99.90;;;;;;4974570;28;39235;-72
2021/12/21 12:34:39;;;;;;;16.93;8.13;;;3.70;99.90;;;;;;4963190;28;37769;-72
2021/12/21 12:37:20;;;;;;;16.30;8.77;;;3.70;99.90;;;;;;4970272;28;38724;-72
2021/12/21 12:39:52;;;;;;;14.27;8.40;;;3.80;99.90;;;;;;4961606;28;40054;-72
2021/12/21 12:42:25;;;;;;;15.02;9.00;;;3.80;99.90;;;;;;4975224;28;39445;-72
2021/12/21 12:45:11;;;;;;;;;;;3.70;99.90;;;;;;4959820;28;38092;-72
2021/12/21 12:47:54;;;;;;;14.27;7.47;;;3.70;99.90;;;;;;4973035;28;47624;-72
2021/12/21 12:50:28;;;;;;;14.00;8.10;;;3.70;99.90;;;;;;4973681;28;39808;-72
2021/12/21 12:52:56;;;;;;;16.60;7.00;;;3.70;99.90;;;;;;4962948;28;38848;-75
2021/12/21 12:55:24;;;;;;;15.17;6.70;;;3.70;99.90;;;;;;4960430;28;37642;-72
2021/12/21 12:58:00;;;;;;;12.07;6.23;;;3.80;99.90;;;;;;4980736;28;40940;-72
2021/12/21 13:00:31;;;;;;;12.00;6.73;;;3.80;99.90;;;;;;4958775;28;39492;-72
2021/12/21 13:03:06;;;;;;;8.33;6.20;;;3.80;99.90;;;;;;4972396;28;35134;-73
2021/12/21 13:05:38;;;;;;;12.00;6.37;;;3.80;99.90;;;;;;4957073;28;49045;-72
2021/12/21 13:08:15;;;;;;;11.27;5.88;;;3.80;99.90;;;;;;4958807;28;39934;-72
2021/12/21 13:10:53;;;;;;;12.90;5.77;;;3.80;99.90;;;;;;4962303;28;39950;-74
2021/12/21 13:13:20;;;;;;;17.77;5.77;;;3.90;99.90;;;;;;4958540;28;38796;-73
2021/12/21 13:15:51;;;;;;;9.73;6.00;;;4.00;99.90;;;;;;4972198;28;37346;-73
2021/12/21 13:18:19;;;;;;;11.13;5.57;;;3.90;99.90;;;;;;4954759;28;39702;-74
2021/12/21 13:20:48;;;;;;;16.77;6.40;;;4.00;99.90;;;;;;4954258;28;40458;-72
2021/12/21 13:23:22;;;;;;;11.40;7.13;;;4.00;99.90;;;;;;4951264;28;36980;-72
2021/12/21 13:26:07;;;;;;;12.03;5.47;;;4.00;99.90;;;;;;4955983;28;37117;-72
2021/12/21 13:28:50;;;;;;;13.53;5.70;;;4.10;99.90;;;;;;4961909;28;48777;-73
2021/12/21 13:31:19;;;;;;;14.33;5.80;;;4.10;99.90;;;;;;4964149;28;38543;-73
2021/12/21 13:33:52;;;;;;;8.30;5.10;;;4.10;99.90;;;;;;4954271;28;38767;-73
2021/12/21 13:36:18;;;;;;;9.50;5.03;;;4.10;99.90;;;;;;4953546;28;38051;-72
2021/12/21 13:38:44;;;;;;;13.00;5.73;;;4.10;99.90;;;;;;4956801;28;38622;-73
2021/12/21 13:41:15;;;;;;;12.10;5.97;;;4.00;99.90;;;;;;4956442;28;40521;-72
2021/12/21 13:43:57;;;;;;;6.07;4.47;;;4.10;99.90;;;;;;4956153;28;39125;-73